Time;durP1;ratioP1;P1;durP2;ratioP2;P2;SDS_P1;SDS_P2;PMS_P1;PMS_P2;Temp;Humidity;BMP_temperature;BMP_pressure;BME280_temperature;BME280_humidity;BME280_pressure;Samples;Min_cycle;Max_cycle;Signal;HPM_P1;HPM_P2
2021/04/15 00:02:23;;;;;;;11.73;7.40;;;;;;;3.32;67.45;100906.47;4954451;28;20043;-71
2021/04/15 00:04:49;;;;;;;12.15;8.50;;;;;;;3.29;67.57;100907.34;4918527;28;20039;-70
2021/04/15 00:07:14;;;;;;;11.68;7.93;;;;;;;3.22;68.09;100901.28;4951843;28;20054;-70
2021/04/15 00:09:39;;;;;;;12.65;7.72;;;;;;;3.17;68.11;100897.78;4952636;28;20031;-70
2021/04/15 00:12:05;;;;;;;10.32;6.97;;;;;;;3.15;68.17;100904.78;4952200;28;20035;-70
2021/04/15 00:14:31;;;;;;;10.95;7.68;;;;;;;3.13;68.45;100910.84;4939843;28;20043;-70
2021/04/15 00:16:56;;;;;;;10.68;9.07;;;;;;;3.11;68.43;100912.59;4947834;28;20538;-70
2021/04/15 00:19:22;;;;;;;10.07;7.00;;;;;;;3.07;68.67;100906.50;4951538;28;20051;-70
2021/04/15 00:21:48;;;;;;;19.58;9.60;;;;;;;3.04;68.83;100903.03;4950773;28;20031;-69
2021/04/15 00:24:14;;;;;;;14.93;7.80;;;;;;;2.98;68.99;100898.72;4962141;28;20126;-70
2021/04/15 00:26:39;;;;;;;12.40;8.80;;;;;;;2.95;69.07;100896.06;4951243;28;20118;-70
2021/04/15 00:29:05;;;;;;;11.15;8.45;;;;;;;2.93;69.03;100897.81;4951729;28;20078;-69
2021/04/15 00:31:30;;;;;;;12.45;8.07;;;;;;;2.89;69.39;100899.56;4951990;28;20071;-69
2021/04/15 00:33:56;;;;;;;14.30;9.55;;;;;;;2.82;69.40;100900.41;4951672;28;20411;-69
2021/04/15 00:36:23;;;;;;;11.45;8.50;;;;;;;2.77;69.62;100899.56;4951928;28;20062;-69
2021/04/15 00:38:49;;;;;;;13.90;8.55;;;;;;;2.70;69.96;100906.47;4952520;28;20043;-69
2021/04/15 00:41:15;;;;;;;14.50;9.20;;;;;;;2.65;70.01;100899.53;4963140;28;20034;-69
2021/04/15 00:43:43;;;;;;;13.45;8.88;;;;;;;2.61;70.48;100896.09;4959208;28;20167;-69
2021/04/15 00:46:30;;;;;;;12.80;8.55;;;;;;;2.56;70.64;100895.22;4940728;28;20142;-69
2021/04/15 00:48:56;;;;;;;14.52;9.15;;;;;;;2.49;70.47;100890.84;4948076;28;20080;-69
2021/04/15 00:51:37;;;;;;;10.13;7.90;;;;;;;2.46;70.51;100886.53;4970574;28;20070;-68
2021/04/15 00:54:07;;;;;;;13.40;9.32;;;;;;;2.46;70.93;100890.84;4970750;28;20433;-69
2021/04/15 00:56:33;;;;;;;11.23;8.10;;;;;;;2.49;70.45;100893.47;4954489;28;20070;-69
2021/04/15 00:58:59;;;;;;;16.23;10.00;;;;;;;2.44;70.75;100892.59;4950971;28;20071;-70
2021/04/15 01:01:25;;;;;;;12.25;8.52;;;;;;;2.32;70.62;100891.69;4908008;28;20055;-70
2021/04/15 01:03:50;;;;;;;13.32;8.65;;;;;;;2.10;71.49;100893.34;4951196;28;20035;-69
2021/04/15 01:06:16;;;;;;;14.30;9.38;;;;;;;2.00;71.60;100896.78;4950648;28;20035;-69
2021/04/15 01:08:42;;;;;;;12.13;9.00;;;;;;;1.87;72.05;100889.78;4951200;28;20047;-70
2021/04/15 01:11:18;;;;;;;14.30;9.98;;;;;;;1.77;71.88;100890.63;4951174;28;20066;-69
2021/04/15 01:14:07;;;;;;;13.23;9.77;;;;;;;1.62;72.05;100900.06;4933426;28;20050;-69
2021/04/15 01:16:44;;;;;;;12.93;8.50;;;;;;;1.57;72.39;100888.78;4950115;28;20134;-69
2021/04/15 01:19:43;;;;;;;13.27;7.97;;;;;;;1.54;72.17;100886.19;4952895;28;20039;-69
2021/04/15 01:22:23;;;;;;;13.65;9.02;;;;;;;1.50;72.38;100887.00;4954541;28;20050;-69
2021/04/15 01:24:58;;;;;;;12.07;9.25;;;;;;;1.47;72.32;100882.66;4954059;28;20058;-69
2021/04/15 01:27:43;;;;;;;13.55;9.50;;;;;;;1.44;72.28;100884.41;4953780;28;20151;-70
2021/04/15 01:30:21;;;;;;;15.75;10.80;;;;;;;1.35;72.08;100880.00;4954649;28;20047;-69
2021/04/15 01:32:53;;;;;;;13.57;10.20;;;;;;;1.17;72.50;100880.75;4953918;28;20090;-69
2021/04/15 01:35:49;;;;;;;9.90;7.78;;;;;;;1.12;73.02;100879.00;4954234;28;20591;-68
2021/04/15 01:38:30;;;;;;;16.73;10.40;;;;;;;1.04;73.19;100885.00;4954689;28;20054;-69
2021/04/15 01:41:04;;;;;;;13.27;9.73;;;;;;;0.92;73.93;100879.72;4948288;28;20042;-68
2021/04/15 01:43:36;;;;;;;12.63;8.70;;;;;;;0.82;73.91;100881.38;4935105;29;20055;-69
2021/04/15 01:46:03;;;;;;;12.88;10.02;;;;;;;0.85;73.97;100886.59;4951628;28;20031;-69
2021/04/15 01:48:39;;;;;;;13.63;9.63;;;;;;;0.93;72.91;100885.78;4973852;28;20043;-68
2021/04/15 01:51:11;;;;;;;;;;;;;;;0.84;73.79;100882.25;4974083;28;20122;-69
2021/04/15 01:53:44;;;;;;;15.60;9.82;;;;;;;0.78;74.26;100882.19;4965601;28;20012;-69
2021/04/15 01:56:13;;;;;;;17.58;10.75;;;;;;;0.78;73.78;100884.78;4964231;28;20574;-69
2021/04/15 01:58:45;;;;;;;11.98;9.30;;;;;;;0.83;73.63;100879.63;4973469;28;20191;-69
2021/04/15 02:01:16;;;;;;;17.13;9.65;;;;;;;0.83;73.65;100875.31;4973257;28;20134;-70
2021/04/15 02:03:44;;;;;;;14.23;9.55;;;;;;;0.81;73.16;100873.56;4973198;28;20043;-69
2021/04/15 02:06:16;;;;;;;11.70;8.13;;;;;;;0.76;73.31;100872.66;4972761;28;20145;-70
2021/04/15 02:08:46;;;;;;;10.75;7.95;;;;;;;0.74;73.79;100879.56;4973349;28;20394;-69
2021/04/15 02:11:44;;;;;;;12.90;8.48;;;;;;;0.71;73.13;100869.16;4973082;28;20552;-69
2021/04/15 02:14:15;;;;;;;13.00;8.50;;;;;;;0.68;73.06;100879.53;4972963;28;20053;-70
2021/04/15 02:16:43;;;;;;;16.83;9.65;;;;;;;0.62;73.16;100875.16;4972536;28;20038;-70
2021/04/15 02:19:12;;;;;;;13.23;9.75;;;;;;;0.59;74.10;100875.09;4972779;28;20042;-69
2021/04/15 02:21:42;;;;;;;11.13;8.80;;;;;;;0.54;73.88;100877.69;4972554;28;20031;-70
2021/04/15 02:24:43;;;;;;;13.15;8.32;;;;;;;0.52;74.21;100875.94;4972582;28;20522;-69
2021/04/15 02:27:54;;;;;;;13.95;9.13;;;;;;;0.42;74.72;100886.22;4971977;28;20049;-70
2021/04/15 02:30:24;;;;;;;19.23;11.43;;;;;;;0.40;74.73;100876.69;4894273;29;20048;-69
2021/04/15 02:33:01;;;;;;;15.65;9.43;;;;;;;0.32;74.73;100883.50;4965015;28;20449;-69
2021/04/15 02:35:34;;;;;;;12.57;8.82;;;;;;;0.25;74.11;100882.56;4972224;28;20044;-68
2021/04/15 02:38:01;;;;;;;24.48;12.93;;;;;;;0.19;74.84;100885.94;4972270;28;20169;-69
2021/04/15 02:40:32;;;;;;;12.40;8.38;;;;;;;0.24;74.14;100883.41;4972292;28;20069;-70
2021/04/15 02:43:10;;;;;;;14.85;10.55;;;;;;;0.23;74.31;100886.88;4972183;28;20045;-69
2021/04/15 02:45:41;;;;;;;18.95;10.50;;;;;;;0.13;74.82;100890.22;4938628;28;20040;-68
2021/04/15 02:48:25;;;;;;;18.45;12.00;;;;;;;0.09;75.44;100888.44;4933738;29;20566;-68
2021/04/15 02:51:00;;;;;;;16.33;10.30;;;;;;;0.15;75.21;100893.72;4933319;29;20040;-70
2021/04/15 02:53:33;;;;;;;14.43;10.45;;;;;;;0.12;74.76;100899.69;4947176;28;20070;-70
2021/04/15 02:56:19;;;;;;;14.77;10.20;;;;;;;0.17;75.14;100894.56;4962569;28;20043;-69
2021/04/15 02:58:50;;;;;;;15.55;8.18;;;;;;;0.23;74.74;100891.19;4951832;28;20456;-69
2021/04/15 03:01:22;;;;;;;16.33;10.02;;;;;;;0.23;75.06;100897.25;4933413;29;20058;-69
2021/04/15 03:03:52;;;;;;;17.65;11.30;;;;;;;0.25;75.15;100905.91;4933086;29;20075;-68
2021/04/15 03:06:22;;;;;;;13.18;9.45;;;;;;;0.28;74.60;100897.31;4933142;29;20038;-69
2021/04/15 03:08:50;;;;;;;15.45;10.55;;;;;;;0.29;74.57;100910.25;4933436;29;20034;-69
2021/04/15 03:11:47;;;;;;;13.57;9.98;;;;;;;0.28;74.79;100907.69;4933513;29;20051;-69
2021/04/15 03:14:25;;;;;;;14.10;10.35;;;;;;;0.34;74.55;100905.13;4932559;29;20047;-69
2021/04/15 03:16:56;;;;;;;14.35;9.80;;;;;;;0.41;74.64;100899.16;4932924;29;20484;-70
2021/04/15 03:19:25;;;;;;;12.95;10.10;;;;;;;0.38;74.01;100897.41;4944294;28;20035;-69
2021/04/15 03:21:58;;;;;;;15.55;9.90;;;;;;;0.31;74.68;100894.72;4959949;28;20035;-70
2021/04/15 03:24:30;;;;;;;13.35;10.02;;;;;;;0.34;74.28;100894.75;4965747;28;20066;-70
2021/04/15 03:27:09;;;;;;;16.73;11.20;;;;;;;0.24;74.58;100900.69;4962955;28;20030;-70
2021/04/15 03:29:40;;;;;;;17.35;10.55;;;;;;;0.13;74.68;100903.19;4971382;28;20039;-69
2021/04/15 03:32:24;;;;;;;18.67;9.10;;;;;;;0.12;75.46;100899.69;4971479;28;20045;-70
2021/04/15 03:35:07;;;;;;;15.10;10.07;;;;;;;0.18;74.98;100904.09;4953682;28;20034;-69
2021/04/15 03:37:40;;;;;;;17.00;11.52;;;;;;;0.17;75.34;100903.25;4940208;28;20126;-68
2021/04/15 03:40:12;;;;;;;13.30;9.50;;;;;;;0.20;74.94;100903.28;4952830;28;20106;-68
2021/04/15 03:42:53;;;;;;;11.43;8.90;;;;;;;0.23;74.47;100904.16;4970040;28;20513;-69
2021/04/15 03:45:24;;;;;;;14.43;10.50;;;;;;;0.29;74.49;100889.50;4970356;28;20073;-68
2021/04/15 03:47:59;;;;;;;12.38;9.05;;;;;;;0.38;74.20;100893.94;4969799;28;20043;-70
2021/04/15 03:50:28;;;;;;;12.27;9.75;;;;;;;0.43;74.55;100893.13;4970129;28;20031;-70
2021/04/15 03:53:10;;;;;;;15.40;8.65;;;;;;;0.46;74.19;100896.59;4969602;28;20031;-70
2021/04/15 03:55:43;;;;;;;12.23;8.48;;;;;;;0.34;74.68;100894.75;4969743;28;20107;-69
2021/04/15 03:58:41;;;;;;;12.40;7.82;;;;;;;0.24;74.82;100898.97;4969682;28;20043;-69
2021/04/15 04:01:20;;;;;;;13.60;9.23;;;;;;;0.24;74.77;100898.97;4954563;28;20512;-70
2021/04/15 04:03:55;;;;;;;14.68;9.40;;;;;;;0.21;74.98;100898.94;4970010;28;20035;-70
2021/04/15 04:06:25;;;;;;;16.02;7.90;;;;;;;0.23;75.05;100886.00;4957452;28;20046;-70
2021/04/15 04:08:59;;;;;;;14.73;9.73;;;;;;;0.25;74.61;100897.25;4970296;28;20031;-68
2021/04/15 04:11:32;;;;;;;14.05;9.95;;;;;;;0.18;74.23;100902.38;4958939;28;20606;-70
2021/04/15 04:14:11;;;;;;;15.80;10.02;;;;;;;0.15;74.62;100901.50;4950669;28;20091;-70
2021/04/15 04:16:44;;;;;;;12.48;8.93;;;;;;;0.14;74.24;100907.50;4950180;28;20071;-69
2021/04/15 04:19:28;;;;;;;16.50;11.48;;;;;;;0.08;74.78;100903.13;4950547;28;20078;-69
2021/04/15 04:22:15;;;;;;;20.45;11.05;;;;;;;0.01;75.32;100896.13;4950292;28;20039;-69
2021/04/15 04:24:59;;;;;;;14.75;9.65;;;;;;;-0.03;75.03;100904.72;4931665;29;20032;-69
2021/04/15 04:27:41;;;;;;;15.50;10.55;;;;;;;-0.04;75.45;100900.41;4931814;29;20051;-70
2021/04/15 04:30:11;;;;;;;15.52;10.10;;;;;;;-0.04;74.92;100903.00;4931816;29;20036;-70
2021/04/15 04:32:38;;;;;;;16.30;9.80;;;;;;;-0.06;75.97;100907.28;4931472;29;20579;-70
2021/04/15 04:35:09;;;;;;;18.65;9.15;;;;;;;-0.10;75.62;100906.38;4935257;29;20118;-70
2021/04/15 04:37:44;;;;;;;14.00;9.98;;;;;;;-0.13;75.50;100903.72;4902698;29;596025;-69
2021/04/15 04:40:50;;;;;;;17.88;11.85;;;;;;;-0.11;75.87;100912.41;4934138;29;20522;-69
2021/04/15 04:43:19;;;;;;;15.82;9.40;;;;;;;-0.15;75.98;100909.75;4927801;29;20423;-69
2021/04/15 04:45:45;;;;;;;15.52;9.55;;;;;;;-0.19;75.48;100911.44;4915176;29;20035;-69
2021/04/15 04:48:19;;;;;;;17.67;9.85;;;;;;;-0.21;75.17;100918.31;4931916;29;20036;-69
2021/04/15 04:50:51;;;;;;;14.05;10.70;;;;;;;-0.23;75.90;100917.44;4932796;29;20128;-69
2021/04/15 04:53:29;;;;;;;14.60;9.98;;;;;;;-0.22;76.01;100921.78;4934960;29;20043;-69
2021/04/15 04:56:35;;;;;;;13.43;8.95;;;;;;;-0.21;76.33;100915.72;4920503;29;20043;-68
2021/04/15 04:59:13;;;;;;;12.25;8.50;;;;;;;-0.11;75.46;100914.13;4944004;29;20122;-70
2021/04/15 05:01:40;;;;;;;17.02;10.15;;;;;;;-0.10;75.63;100924.53;4942193;29;20036;-69
2021/04/15 05:04:06;;;;;;;13.00;10.30;;;;;;;-0.12;76.13;100925.38;4942080;29;20040;-69
2021/04/15 05:06:34;;;;;;;13.88;9.05;;;;;;;-0.14;75.88;100929.66;4938721;29;20040;-69
2021/04/15 05:09:05;;;;;;;13.70;9.45;;;;;;;-0.08;75.52;100937.50;4937660;29;20039;-69
2021/04/15 05:11:35;;;;;;;22.67;10.82;;;;;;;-0.10;76.01;100934.91;4919633;29;20118;-69
2021/04/15 05:14:02;;;;;;;15.05;11.35;;;;;;;-0.12;75.84;100939.19;4936721;29;20028;-69
2021/04/15 05:16:35;;;;;;;16.77;8.85;;;;;;;-0.06;74.92;100940.97;4935882;29;20047;-69
2021/04/15 05:19:01;;;;;;;13.77;9.20;;;;;;;-0.02;75.18;100950.53;4953945;28;20440;-70
2021/04/15 05:21:29;;;;;;;13.05;8.68;;;;;;;0.02;75.59;100941.94;4955043;28;20074;-72
2021/04/15 05:24:14;;;;;;;13.98;10.07;;;;;;;0.03;75.16;100951.47;4957124;28;20038;-72
2021/04/15 05:26:42;;;;;;;14.77;10.77;;;;;;;0.08;75.16;100947.22;4966044;28;20041;-70
2021/04/15 05:29:12;;;;;;;13.38;9.70;;;;;;;0.06;75.12;100959.28;4974354;28;20614;-70
2021/04/15 05:31:41;;;;;;;15.70;11.25;;;;;;;0.03;74.86;100953.19;4975248;28;20065;-70
2021/04/15 05:34:20;;;;;;;16.95;10.93;;;;;;;-0.03;75.33;100956.56;4973819;28;20058;-70
2021/04/15 05:36:46;;;;;;;16.42;11.60;;;;;;;-0.03;75.40;100957.41;4973558;28;20034;-72
2021/04/15 05:39:16;;;;;;;14.45;10.85;;;;;;;0.02;76.13;100962.66;4973709;28;20031;-69
2021/04/15 05:41:53;;;;;;;18.13;10.55;;;;;;;0.16;75.12;100953.34;4973202;28;20455;-69
2021/04/15 05:44:34;;;;;;;13.18;9.77;;;;;;;0.25;74.86;100951.69;4973389;28;20034;-70
2021/04/15 05:47:02;;;;;;;11.18;7.95;;;;;;;0.42;73.93;100958.84;4973406;28;20057;-69
2021/04/15 05:49:31;;;;;;;11.00;8.18;;;;;;;0.59;73.73;100952.94;4974123;28;20054;-69
2021/04/15 05:52:05;;;;;;;12.20;9.88;;;;;;;0.77;73.83;100947.09;4956295;28;20022;-71
2021/04/15 05:54:34;;;;;;;10.25;8.95;;;;;;;0.96;72.96;100953.28;4974184;28;20038;-68
2021/04/15 05:57:09;;;;;;;12.25;8.90;;;;;;;1.12;72.20;100954.31;4973322;28;20031;-69
2021/04/15 05:59:35;;;;;;;15.23;8.95;;;;;;;1.26;72.62;100958.75;4973857;28;20035;-70
2021/04/15 06:02:09;;;;;;;14.45;9.23;;;;;;;1.44;71.71;100955.41;4973669;28;20046;-70
2021/04/15 06:04:43;;;;;;;13.82;9.93;;;;;;;1.52;71.42;100952.88;4973070;28;20049;-70
2021/04/15 06:07:15;;;;;;;10.57;7.65;;;;;;;1.64;71.06;100954.69;4973946;28;20031;-69
2021/04/15 06:09:42;;;;;;;15.38;10.27;;;;;;;1.73;70.63;100965.13;4974006;28;20037;-70
2021/04/15 06:12:17;;;;;;;20.33;10.70;;;;;;;1.80;70.88;100959.13;4974424;28;20027;-70
2021/04/15 06:14:57;;;;;;;12.40;9.98;;;;;;;1.89;70.78;100961.75;4974681;28;20031;-71
2021/04/15 06:17:43;;;;;;;13.80;10.43;;;;;;;2.06;70.08;100967.03;4974050;28;20046;-70
2021/04/15 06:20:31;;;;;;;12.25;9.05;;;;;;;2.03;70.18;100969.63;4957676;28;20663;-71
2021/04/15 06:23:03;;;;;;;16.00;10.52;;;;;;;2.39;69.53;100961.94;4948345;28;20035;-70
2021/04/15 06:25:32;;;;;;;11.43;8.63;;;;;;;2.60;68.76;100966.34;4945622;28;20039;-70
2021/04/15 06:28:04;;;;;;;13.85;8.98;;;;;;;2.77;67.79;100962.91;4943579;28;20064;-69
2021/04/15 06:30:58;;;;;;;14.80;10.85;;;;;;;3.06;67.44;100964.69;4947722;28;20036;-70
2021/04/15 06:33:25;;;;;;;18.17;9.00;;;;;;;3.43;66.37;100957.72;4945563;28;20039;-74
2021/04/15 06:35:54;;;;;;;11.32;8.52;;;;;;;3.96;64.71;100962.81;4926675;28;20032;-71
2021/04/15 06:38:38;;;;;;;10.80;8.57;;;;;;;4.48;63.23;100965.22;4937027;28;20542;-71
2021/04/15 06:41:30;;;;;;;11.43;9.38;;;;;;;5.18;61.48;100961.25;4944765;28;20039;-71
2021/04/15 06:44:19;;;;;;;12.23;9.30;;;;;;;5.56;59.79;100963.56;4948012;28;20031;-71
2021/04/15 06:47:03;;;;;;;15.88;9.05;;;;;;;6.10;58.42;100962.13;4948097;28;20039;-71
2021/04/15 06:49:47;;;;;;;12.15;8.32;;;;;;;6.23;57.41;100961.97;4948062;28;20063;-71
2021/04/15 06:52:21;;;;;;;10.98;7.90;;;;;;;5.96;58.06;100962.31;4947983;28;20113;-71
2021/04/15 06:55:16;;;;;;;13.60;8.93;;;;;;;5.73;58.85;100957.25;4947301;28;20211;-71
2021/04/15 06:57:57;;;;;;;13.18;10.20;;;;;;;6.01;58.30;100963.09;4967277;28;20065;-71
2021/04/15 07:00:50;;;;;;;13.63;11.27;;;;;;;6.41;56.67;100960.84;4967609;28;20051;-71
2021/04/15 07:03:35;;;;;;;14.93;10.82;;;;;;;6.85;55.86;100958.50;4949578;28;20046;-70
2021/04/15 07:06:09;;;;;;;13.75;10.30;;;;;;;7.41;54.25;100947.97;4931054;28;20055;-72
2021/04/15 07:08:49;;;;;;;14.23;10.57;;;;;;;7.84;53.28;100949.81;4948107;28;20039;-70
2021/04/15 07:11:44;;;;;;;17.23;10.88;;;;;;;8.19;51.64;100949.09;4947873;28;20126;-72
2021/04/15 07:14:26;;;;;;;12.38;10.20;;;;;;;8.66;50.89;100947.22;4955216;28;20502;-73
2021/04/15 07:17:24;;;;;;;17.33;11.52;;;;;;;8.70;50.24;100941.00;4944092;28;20465;-69
2021/04/15 07:19:59;;;;;;;16.67;11.25;;;;;;;8.82;49.42;100953.03;4946772;28;20150;-70
2021/04/15 07:23:04;;;;;;;20.57;11.80;;;;;;;8.53;50.78;100953.69;4930981;28;20547;-71
2021/04/15 07:26:07;;;;;;;15.63;10.23;;;;;;;8.39;50.59;100951.31;4907192;29;20039;-72
2021/04/15 07:28:51;;;;;;;32.83;13.20;;;;;;;8.32;51.14;100947.09;4927955;29;20528;-71
2021/04/15 07:31:36;;;;;;;18.90;12.95;;;;;;;8.48;50.14;100943.25;4932402;28;20051;-70
2021/04/15 07:34:19;;;;;;;15.63;10.95;;;;;;;8.62;50.40;100945.59;4967038;28;20042;-69
2021/04/15 07:37:22;;;;;;;18.20;10.70;;;;;;;8.95;49.42;100945.69;4966234;28;20082;-69
2021/04/15 07:40:03;;;;;;;13.55;9.63;;;;;;;8.95;48.74;100943.06;4965893;28;20042;-69
2021/04/15 07:42:44;;;;;;;17.92;10.75;;;;;;;9.26;47.85;100947.59;4965954;28;20390;-70
2021/04/15 07:45:24;;;;;;;13.10;10.30;;;;;;;9.53;47.48;100951.28;4966158;28;20123;-71
2021/04/15 07:48:20;;;;;;;13.45;9.40;;;;;;;9.44;47.36;100955.00;4965948;28;20090;-70
2021/04/15 07:51:19;;;;;;;17.98;10.13;;;;;;;9.65;46.94;100953.59;4967453;28;20100;-70
2021/04/15 07:53:56;;;;;;;13.60;10.27;;;;;;;9.75;46.53;100962.97;4964767;28;20146;-73
2021/04/15 07:56:50;;;;;;;16.58;9.90;;;;;;;9.65;46.96;100958.88;4958639;28;20123;-69
2021/04/15 07:59:40;;;;;;;14.30;9.32;;;;;;;10.10;46.02;100962.00;4941998;28;20058;-70
2021/04/15 08:02:52;;;;;;;12.98;9.48;;;;;;;10.96;43.93;100964.72;4957826;28;20125;-70
2021/04/15 08:06:05;;;;;;;16.25;10.57;;;;;;;11.13;43.34;100960.69;4948226;28;20070;-72
2021/04/15 08:08:46;;;;;;;15.48;8.88;;;;;;;10.92;43.72;100968.34;4894861;28;20061;-71
2021/04/15 08:11:20;;;;;;;15.60;9.43;;;;;;;11.07;43.00;100966.13;4957481;28;20041;-71
2021/04/15 08:14:13;;;;;;;16.65;9.90;;;;;;;11.16;42.30;100965.84;4950860;28;20047;-71
2021/04/15 08:17:00;;;;;;;17.23;10.27;;;;;;;11.61;41.59;100963.41;4946356;28;20102;-70
2021/04/15 08:19:58;;;;;;;12.52;9.88;;;;;;;12.02;40.35;100955.00;4951598;28;20024;-71
2021/04/15 08:22:55;;;;;;;13.75;9.32;;;;;;;11.22;41.90;100964.78;4954527;28;20111;-71
2021/04/15 08:25:24;;;;;;;13.93;10.02;;;;;;;10.51;43.02;100967.88;4952178;28;20031;-70
2021/04/15 08:27:55;;;;;;;13.57;10.15;;;;;;;9.85;44.78;100972.34;4952645;28;20047;-70
2021/04/15 08:30:24;;;;;;;25.05;9.95;;;;;;;9.56;45.56;100973.13;4949450;28;20579;-70
2021/04/15 08:33:06;;;;;;;13.70;10.05;;;;;;;9.00;46.36;100968.34;4947628;28;20043;-69
2021/04/15 08:36:02;;;;;;;17.77;8.52;;;;;;;8.73;47.02;100975.13;4957064;28;20027;-70
2021/04/15 08:39:02;;;;;;;14.60;8.43;;;;;;;8.43;48.52;100973.16;4947494;28;20106;-68
2021/04/15 08:42:06;;;;;;;11.52;8.95;;;;;;;8.27;49.39;100976.09;4947085;28;20531;-70
2021/04/15 08:45:02;;;;;;;15.48;8.40;;;;;;;8.09;49.54;100973.81;4916450;28;20058;-71
2021/04/15 08:47:30;;;;;;;14.18;8.55;;;;;;;8.40;49.67;100981.13;4948405;28;20067;-72
2021/04/15 08:50:13;;;;;;;10.10;7.07;;;;;;;8.62;47.60;100971.88;4947748;28;20458;-71
2021/04/15 08:52:40;;;;;;;16.67;9.45;;;;;;;9.53;46.27;100972.34;4948403;28;20047;-71
2021/04/15 08:55:18;;;;;;;12.32;9.00;;;;;;;9.78;46.03;100977.81;4947846;28;20490;-71
2021/04/15 08:58:03;;;;;;;10.75;8.75;;;;;;;10.10;44.53;100972.53;4946556;28;20040;-70
2021/04/15 09:00:31;;;;;;;11.25;7.03;;;;;;;10.25;42.73;100979.13;4946507;28;20090;-69
2021/04/15 09:03:14;;;;;;;12.55;8.93;;;;;;;9.90;44.08;100977.50;4946281;28;20576;-70
2021/04/15 09:06:03;;;;;;;13.68;9.35;;;;;;;9.18;46.45;100972.31;4930786;28;21371;-70
2021/04/15 09:08:56;;;;;;;11.98;7.60;;;;;;;8.85;46.76;100976.59;4927094;29;20050;-69
2021/04/15 09:12:05;;;;;;;10.00;7.10;;;;;;;8.67;46.53;100967.38;4926988;29;20289;-68
2021/04/15 09:14:49;;;;;;;10.55;8.15;;;;;;;9.48;45.19;100971.59;4931952;28;20038;-70
2021/04/15 09:17:22;;;;;;;10.38;7.38;;;;;;;10.72;42.22;100966.34;4945873;28;20036;-69
2021/04/15 09:20:06;;;;;;;8.80;6.45;;;;;;;10.34;42.08;100970.16;4947232;28;20407;-69
2021/04/15 09:22:59;;;;;;;10.95;7.28;;;;;;;9.38;44.25;100974.47;4946715;28;20047;-69
2021/04/15 09:25:51;;;;;;;12.77;7.75;;;;;;;9.18;44.77;100974.06;4938507;28;20178;-69
2021/04/15 09:28:39;;;;;;;15.00;6.85;;;;;;;8.55;46.25;100975.53;4948399;28;20042;-70
2021/04/15 09:31:30;;;;;;;9.63;6.43;;;;;;;8.73;45.53;100969.00;4947144;28;20031;-70
2021/04/15 09:33:58;;;;;;;8.68;6.22;;;;;;;8.39;46.44;100972.31;4949489;28;20047;-68
2021/04/15 09:36:37;;;;;;;11.25;7.22;;;;;;;8.31;46.78;100972.50;4964441;28;20070;-69
2021/04/15 09:39:03;;;;;;;10.95;6.50;;;;;;;8.17;46.21;100974.53;4958203;28;20043;-68
2021/04/15 09:41:52;;;;;;;10.65;5.97;;;;;;;8.19;46.71;100967.47;4931094;28;20570;-68
2021/04/15 09:44:29;;;;;;;17.05;6.80;;;;;;;8.23;46.65;100978.81;4950135;28;20031;-68
2021/04/15 09:47:01;;;;;;;13.43;6.45;;;;;;;8.25;46.31;100972.63;4948554;28;20041;-70
2021/04/15 09:49:42;;;;;;;12.80;6.07;;;;;;;8.22;46.14;100972.69;4960781;28;20045;-71
2021/04/15 09:52:28;;;;;;;7.43;4.85;;;;;;;8.20;45.31;100969.22;4965857;28;20038;-71
2021/04/15 09:55:03;;;;;;;10.95;5.72;;;;;;;8.29;45.16;100961.13;4965751;28;20065;-69
2021/04/15 09:57:45;;;;;;;8.80;5.03;;;;;;;8.18;44.19;100960.50;4948083;28;20036;-69
2021/04/15 10:00:17;;;;;;;7.03;5.03;;;;;;;8.67;43.57;100958.63;4957934;28;21353;-70
2021/04/15 10:03:04;;;;;;;8.60;5.75;;;;;;;8.75;43.83;100962.81;4952286;28;20114;-70
2021/04/15 10:05:29;;;;;;;6.22;5.40;;;;;;;9.39;43.41;100959.53;4967874;28;20052;-70
2021/04/15 10:08:00;;;;;;;9.70;5.75;;;;;;;10.10;40.03;100964.63;4967663;28;20042;-71
2021/04/15 10:10:37;;;;;;;12.07;5.70;;;;;;;10.27;40.09;100952.75;4967682;28;20035;-69
2021/04/15 10:13:37;;;;;;;12.70;6.50;;;;;;;9.80;41.22;100953.19;4962649;28;20035;-69
2021/04/15 10:16:14;;;;;;;7.13;4.75;;;;;;;9.51;40.62;100953.94;4932933;28;20127;-69
2021/04/15 10:19:03;;;;;;;14.82;5.93;;;;;;;9.27;42.06;100950.16;4946889;28;20099;-70
2021/04/15 10:22:03;;;;;;;6.65;5.15;;;;;;;9.65;40.99;100951.81;4948001;28;20051;-69
2021/04/15 10:24:32;;;;;;;6.80;5.05;;;;;;;11.93;37.72;100948.25;4948100;28;20043;-70
2021/04/15 10:27:22;;;;;;;8.85;4.72;;;;;;;12.70;35.29;100942.72;4945003;28;20039;-69
2021/04/15 10:30:01;;;;;;;7.55;3.72;;;;;;;14.13;31.65;100948.16;4947389;28;20036;-69
2021/04/15 10:32:52;;;;;;;4.95;3.40;;;;;;;12.40;32.44;100944.75;4937884;28;20054;-69
2021/04/15 10:35:43;;;;;;;7.65;4.82;;;;;;;11.27;35.05;100944.38;4948036;28;20042;-69
2021/04/15 10:38:32;;;;;;;10.27;4.07;;;;;;;10.52;37.08;100951.13;4948381;28;20061;-69
2021/04/15 10:41:46;;;;;;;13.95;6.80;;;;;;;9.80;39.89;100952.31;4948082;28;20035;-71
2021/04/15 10:44:43;;;;;;;7.25;4.13;;;;;;;9.30;39.89;100955.34;4943043;28;20043;-68
2021/04/15 10:47:24;;;;;;;6.82;4.95;;;;;;;10.07;38.98;100948.91;4947230;28;20043;-67
2021/04/15 10:50:10;;;;;;;8.07;4.05;;;;;;;10.79;38.19;100948.56;4948923;28;20039;-69
2021/04/15 10:53:06;;;;;;;8.30;4.65;;;;;;;11.26;37.80;100940.88;4939201;28;20670;-69
2021/04/15 10:55:35;;;;;;;10.18;4.93;;;;;;;11.46;36.42;100939.34;4929428;29;20050;-69
2021/04/15 10:58:37;;;;;;;7.25;3.60;;;;;;;11.76;35.13;100937.38;4939341;28;20068;-67
2021/04/15 11:01:26;;;;;;;4.82;3.22;;;;;;;11.71;35.95;100932.25;4916038;28;20050;-70
2021/04/15 11:04:18;;;;;;;7.72;3.72;;;;;;;11.34;36.49;100922.97;4947897;28;20189;-70
2021/04/15 11:06:48;;;;;;;7.28;3.25;;;;;;;11.21;35.60;100928.75;4937533;28;20050;-70
2021/04/15 11:09:22;;;;;;;6.72;3.88;;;;;;;11.22;35.59;100918.13;4958593;28;20039;-69
2021/04/15 11:12:03;;;;;;;6.30;3.15;;;;;;;11.00;34.83;100925.91;4954129;28;20035;-69
2021/04/15 11:14:35;;;;;;;7.25;3.13;;;;;;;10.57;33.68;100926.41;4951969;28;20134;-69
2021/04/15 11:17:04;;;;;;;10.95;3.63;;;;;;;10.21;35.15;100923.91;4966013;28;20138;-69
2021/04/15 11:19:30;;;;;;;7.68;2.85;;;;;;;10.15;34.66;100924.13;4953820;28;20495;-70
2021/04/15 11:22:09;;;;;;;16.02;4.50;;;;;;;10.20;35.33;100922.22;4947568;28;20059;-70
2021/04/15 11:24:35;;;;;;;9.90;3.45;;;;;;;10.31;36.19;100926.28;4947392;28;20415;-70
2021/04/15 11:27:04;;;;;;;7.13;3.17;;;;;;;10.25;37.67;100923.78;4947456;28;20035;-67
2021/04/15 11:29:44;;;;;;;8.98;4.18;;;;;;;10.14;38.47;100925.91;4946616;28;20075;-70
2021/04/15 11:32:33;;;;;;;5.60;3.90;;;;;;;9.98;38.42;100919.31;4948426;28;20058;-70
2021/04/15 11:35:11;;;;;;;6.28;3.78;;;;;;;9.61;38.51;100920.34;4962645;28;20039;-70
2021/04/15 11:37:39;;;;;;;10.57;3.63;;;;;;;9.74;36.90;100915.59;4963953;28;20046;-69
2021/04/15 11:40:17;;;;;;;6.40;3.10;;;;;;;9.84;37.96;100914.44;4956912;28;20035;-70
2021/04/15 11:42:43;;;;;;;5.82;3.63;;;;;;;9.70;39.19;100921.84;4966126;28;20032;-71
2021/04/15 11:45:24;;;;;;;7.38;3.88;;;;;;;9.36;40.12;100915.72;4944798;28;20434;-70
2021/04/15 11:47:49;;;;;;;10.77;4.68;;;;;;;9.19;40.89;100915.31;4950532;28;20046;-69
2021/04/15 11:50:18;;;;;;;7.50;3.53;;;;;;;9.14;41.19;100918.06;4948580;28;20051;-70
2021/04/15 11:52:47;;;;;;;7.65;4.22;;;;;;;9.16;41.13;100916.25;4966115;28;20038;-69
2021/04/15 11:55:32;;;;;;;6.93;3.13;;;;;;;9.16;41.07;100916.25;4956999;28;20043;-69
2021/04/15 11:58:01;;;;;;;8.45;3.85;;;;;;;8.64;41.93;100914.88;4952966;28;20042;-69
2021/04/15 12:00:35;;;;;;;5.70;3.50;;;;;;;8.79;41.96;100911.03;4961988;28;20034;-71
2021/04/15 12:03:00;;;;;;;4.45;3.15;;;;;;;8.81;41.92;100914.47;4957060;28;20681;-69
2021/04/15 12:05:38;;;;;;;5.82;3.83;;;;;;;8.81;40.71;100907.47;4965516;28;20042;-69
2021/04/15 12:08:26;;;;;;;5.75;3.33;;;;;;;9.11;40.70;100904.97;4963302;28;20101;-69
2021/04/15 12:10:53;;;;;;;5.88;3.53;;;;;;;9.35;40.89;100908.75;4957509;28;20046;-70
2021/04/15 12:13:27;;;;;;;5.13;4.07;;;;;;;9.33;40.99;100902.66;4947275;28;20585;-70